Dalton, New Hampshire
Current Conditions -  °F | °C
As of 7:52 AM on Friday 31 Oct 2014 (Local Time) from KHIE Reporting Station
Overcast Overcast  
Wind Chill:   Ceiling: 4400
Heat Index:   Visibility: 10mi
Dew Point:   Wind: 0mph
Humidity: 89%   Direction: NA
Pressure: 30.03"   Gusts: NA
Location:  44.3374°N, 71.528°W
Report Text: KHIE 311152Z AUTO 00000KT 10SM OVC044 03/01 A3003 RMK AO2 SLP180 T00280011 10033 20022 53009
Loading
Personal Weather Stations






























Interactive Weather Map
Tropical Storm Tracking
New forecast layout! Learn more

10-Day Weather Forecast

Advertisements
Track Severe Weather on mobile